Time,TemperatureF,DewpointF,PressureIn,WindDirection,WindDirectionDegrees,WindSpeedMPH,WindSpeedGustMPH,Humidity,HourlyPrecipIn,Conditions,Clouds,dailyrainin,SoftwareType,DateUTC
2013-04-29 00:00:00,-19.4,-25.7,29.40,NE,41,14.0,14.0,72,0.00,CLR,,0.00,WeatherDisplay:10.37,2013-04-28 12:00:00,
2013-04-29 00:15:00,-19.2,-25.5,29.40,NE,39,15.0,15.0,72,0.00,CLR,,0.00,WeatherDisplay:10.37,2013-04-28 12:15:00,
2013-04-29 00:30:00,-19.0,-25.2,29.40,NE,39,15.0,15.0,72,0.00,CLR,,0.00,WeatherDisplay:10.37,2013-04-28 12:30:00,
2013-04-29 00:45:00,-17.7,-24.0,29.40,NE,42,15.0,15.0,72,0.00,CLR,,0.00,WeatherDisplay:10.37,2013-04-28 12:45:00,
2013-04-29 01:00:00,-17.8,-24.1,29.40,NE,40,14.0,15.0,72,0.00,CLR,,0.00,WeatherDisplay:10.37,2013-04-28 13:00:00,
2013-04-29 01:15:00,-17.2,-23.3,29.40,NE,34,14.0,14.0,73,0.00,CLR,,0.00,WeatherDisplay:10.37,2013-04-28 13:15:00,
2013-04-29 01:30:00,-16.0,-22.1,29.40,NE,37,14.0,14.0,73,0.00,CLR,,0.00,WeatherDisplay:10.37,2013-04-28 13:30:00,
2013-04-29 01:45:00,-15.7,-21.6,29.39,NE,50,13.0,14.0,74,0.00,CLR,,0.00,WeatherDisplay:10.37,2013-04-28 13:45:00,
2013-04-29 02:00:00,-15.3,-21.1,29.39,NE,52,15.0,15.0,74,0.00,CLR,,0.00,WeatherDisplay:10.37,2013-04-28 14:00:00,
2013-04-29 02:15:00,-14.6,-20.5,29.39,NE,44,13.0,15.0,74,0.00,CLR,,0.00,WeatherDisplay:10.37,2013-04-28 14:15:00,
2013-04-29 02:30:00,-14.5,-20.4,29.39,NNE,33,14.0,14.0,74,0.00,CLR,,0.00,WeatherDisplay:10.37,2013-04-28 14:30:00,
2013-04-29 02:45:00,-14.5,-20.6,29.40,NNE,32,15.0,15.0,73,0.00,CLR,,0.00,WeatherDisplay:10.37,2013-04-28 14:45:00,
2013-04-29 03:00:00,-14.5,-20.6,29.39,NNE,25,16.0,16.0,73,0.00,CLR,,0.00,WeatherDisplay:10.37,2013-04-28 15:00:00,
2013-04-29 03:15:00,-13.9,-19.8,29.40,NE,51,15.0,16.0,74,0.00,CLR,,0.00,WeatherDisplay:10.37,2013-04-28 15:15:00,
2013-04-29 03:30:00,-13.5,-19.7,29.40,NE,49,16.0,16.0,73,0.00,CLR,,0.00,WeatherDisplay:10.37,2013-04-28 15:30:00,
2013-04-29 03:45:00,-12.2,-17.9,29.40,NE,54,16.0,16.0,75,0.00,CLR,,0.00,WeatherDisplay:10.37,2013-04-28 15:45:00,
2013-04-29 04:00:00,-12.0,-17.9,29.39,NE,50,17.0,17.0,74,0.00,CLR,,0.00,WeatherDisplay:10.37,2013-04-28 16:00:00,
2013-04-29 04:15:00,-12.3,-18.2,29.39,NE,54,18.0,18.0,74,0.00,CLR,,0.00,WeatherDisplay:10.37,2013-04-28 16:15:00,
2013-04-29 04:30:00,-13.2,-18.8,29.39,NE,52,20.0,20.0,75,0.00,CLR,,0.00,WeatherDisplay:10.37,2013-04-28 16:30:00,
2013-04-29 04:45:00,-12.8,-18.5,29.40,NE,52,18.0,20.0,75,0.00,CLR,,0.00,WeatherDisplay:10.37,2013-04-28 16:45:00,
2013-04-29 05:00:00,-12.6,-18.0,29.40,NE,53,17.0,18.0,76,0.00,CLR,,0.00,WeatherDisplay:10.37,2013-04-28 17:00:00,
2013-04-29 05:15:00,-10.8,-16.5,29.40,NE,55,22.0,22.0,75,0.00,CLR,,0.00,WeatherDisplay:10.37,2013-04-28 17:15:00,
2013-04-29 05:30:00,-12.1,-18.1,29.40,ENE,57,21.0,22.0,74,0.00,CLR,,0.00,WeatherDisplay:10.37,2013-04-28 17:30:00,
2013-04-29 05:45:00,-12.3,-18.5,29.40,NE,52,20.0,21.0,73,0.00,CLR,,0.00,WeatherDisplay:10.37,2013-04-28 17:45:00,
2013-04-29 06:00:00,-12.2,-18.6,29.40,NE,54,17.0,20.0,72,0.00,CLR,,0.00,WeatherDisplay:10.37,2013-04-28 18:00:00,
2013-04-29 06:15:00,-10.2,-17.5,29.41,ENE,74,12.0,17.0,69,0.00,CLR,,0.00,WeatherDisplay:10.37,2013-04-28 18:15:00,
2013-04-29 06:30:00,-9.7,-17.4,29.42,East,92,10.0,12.0,68,0.00,CLR,,0.00,WeatherDisplay:10.37,2013-04-28 18:30:00,
2013-04-29 06:45:00,-10.1,-17.2,29.42,ESE,116,8.0,10.0,70,0.00,CLR,,0.00,WeatherDisplay:10.37,2013-04-28 18:45:00,
2013-04-29 07:00:00,-10.5,-17.3,29.43,SE,136,7.0,8.0,71,0.00,CLR,,0.00,WeatherDisplay:10.37,2013-04-28 19:00:00,
2013-04-29 07:15:00,-10.6,-16.9,29.42,SSE,158,5.0,7.0,73,0.00,CLR,,0.00,WeatherDisplay:10.37,2013-04-28 19:15:00,
2013-04-29 07:30:00,-10.7,-16.7,29.43,SE,145,3.0,5.0,74,0.00,CLR,,0.00,WeatherDisplay:10.37,2013-04-28 19:30:00,
2013-04-29 07:45:00,-10.9,-16.4,29.43,SSE,163,15.0,15.0,76,0.00,CLR,,0.00,WeatherDisplay:10.37,2013-04-28 19:45:00,
2013-04-29 08:00:00,-10.9,-16.1,29.44,SSE,148,15.0,15.0,77,0.00,CLR,,0.00,WeatherDisplay:10.37,2013-04-28 20:00:00,
2013-04-29 08:15:00,-10.8,-16.3,29.43,ESE,111,17.0,17.0,76,0.00,CLR,,0.00,WeatherDisplay:10.37,2013-04-28 20:15:00,
2013-04-29 08:30:00,-11.0,-16.4,29.43,East,97,18.0,18.0,76,0.00,CLR,,0.00,WeatherDisplay:10.37,2013-04-28 20:30:00,
2013-04-29 08:45:00,-11.5,-16.5,29.42,SSE,148,22.0,22.0,78,0.00,CLR,,0.00,WeatherDisplay:10.37,2013-04-28 20:45:00,
2013-04-29 09:00:00,-11.5,-16.5,29.43,SSE,148,23.0,23.0,78,0.00,,,0.00,WeatherDisplay:10.37,2013-04-28 21:00:00,
2013-04-29 09:15:00,-11.3,-16.3,29.43,SSE,151,22.0,23.0,78,0.00,CLR,,0.00,WeatherDisplay:10.37,2013-04-28 21:15:00,
2013-04-29 09:30:00,-11.4,-16.4,29.44,SE,144,22.0,22.0,78,0.00,CLR,,0.00,WeatherDisplay:10.37,2013-04-28 21:30:00,
2013-04-29 09:45:00,-10.7,-15.4,29.44,SE,139,21.0,22.0,79,0.00,CLR,,0.00,WeatherDisplay:10.37,2013-04-28 21:45:00,
2013-04-29 10:00:00,-10.1,-14.8,29.44,SE,136,21.0,21.0,79,0.00,CLR,,0.00,WeatherDisplay:10.37,2013-04-28 22:00:00,
2013-04-29 10:15:00,-9.3,-14.0,29.45,SE,140,22.0,22.0,79,0.00,CLR,,0.00,WeatherDisplay:10.37,2013-04-28 22:15:00,
2013-04-29 10:30:00,-8.7,-13.2,29.45,SE,143,23.0,23.0,80,0.00,,,0.00,WeatherDisplay:10.37,2013-04-28 22:30:00,
2013-04-29 10:45:00,-8.0,-12.3,29.44,SE,143,26.0,26.0,81,0.00,,,0.00,WeatherDisplay:10.37,2013-04-28 22:45:00,
2013-04-29 11:00:00,-7.9,-12.2,29.44,SSE,148,25.0,26.0,81,0.00,,,0.00,WeatherDisplay:10.37,2013-04-28 23:00:00,
2013-04-29 11:15:00,-8.7,-13.2,29.44,SE,136,23.0,25.0,80,0.00,CLR,,0.00,WeatherDisplay:10.37,2013-04-28 23:15:00,
2013-04-29 11:30:00,-8.9,-13.4,29.44,SE,137,23.0,23.0,80,0.00,CLR,,0.00,WeatherDisplay:10.37,2013-04-28 23:30:00,
2013-04-29 11:45:00,-9.0,-13.5,29.45,SE,131,20.0,23.0,80,0.00,CLR,,0.00,WeatherDisplay:10.37,2013-04-28 23:45:00,
2013-04-29 12:00:00,-9.3,-13.8,29.45,SE,137,17.0,20.0,80,0.00,CLR,,0.00,WeatherDisplay:10.37,2013-04-29 00:00:00,
2013-04-29 12:15:00,-9.3,-13.8,29.45,SE,141,14.0,17.0,80,0.00,CLR,,0.00,WeatherDisplay:10.37,2013-04-29 00:15:00,
2013-04-29 12:30:00,-9.1,-13.6,29.45,SSE,147,15.0,15.0,80,0.00,CLR,,0.00,WeatherDisplay:10.37,2013-04-29 00:30:00,
2013-04-29 12:45:00,-9.1,-13.6,29.45,SE,142,10.0,15.0,80,0.00,CLR,,0.00,WeatherDisplay:10.37,2013-04-29 00:45:00,
2013-04-29 13:00:00,-9.0,-13.5,29.45,SE,146,10.0,10.0,80,0.00,CLR,,0.00,WeatherDisplay:10.37,2013-04-29 01:00:00,
2013-04-29 13:15:00,-8.5,-12.7,29.45,SE,141,13.0,13.0,81,0.00,CLR,,0.00,WeatherDisplay:10.37,2013-04-29 01:15:00,
2013-04-29 13:30:00,-8.1,-12.4,29.45,SE,137,15.0,15.0,81,0.00,CLR,,0.00,WeatherDisplay:10.37,2013-04-29 01:30:00,
2013-04-29 13:45:00,-8.0,-12.3,29.45,SE,138,15.0,15.0,81,0.00,CLR,,0.00,WeatherDisplay:10.37,2013-04-29 01:45:00,
2013-04-29 14:00:00,-7.9,-12.2,29.45,SE,143,16.0,16.0,81,0.00,CLR,,0.00,WeatherDisplay:10.37,2013-04-29 02:00:00,
2013-04-29 14:15:00,-7.9,-12.2,29.44,SSE,157,15.0,16.0,81,0.00,CLR,,0.00,WeatherDisplay:10.37,2013-04-29 02:15:00,
2013-04-29 14:30:00,-8.3,-12.8,29.45,SE,129,10.0,15.0,80,0.00,CLR,,0.00,WeatherDisplay:10.37,2013-04-29 02:30:00,
2013-04-29 14:45:00,-8.9,-13.4,29.44,ESE,108,8.0,10.0,80,0.00,CLR,,0.00,WeatherDisplay:10.37,2013-04-29 02:45:00,
2013-04-29 15:00:00,-8.8,-13.3,29.44,SE,127,8.0,8.0,80,0.00,CLR,,0.00,WeatherDisplay:10.37,2013-04-29 03:00:00,
2013-04-29 15:15:00,-8.7,-13.2,29.44,SSE,153,8.0,8.0,80,0.00,CLR,,0.00,WeatherDisplay:10.37,2013-04-29 03:15:00,
2013-04-29 15:30:00,-8.6,-13.1,29.44,SE,146,10.0,10.0,80,0.00,CLR,,0.00,WeatherDisplay:10.37,2013-04-29 03:30:00,
2013-04-29 15:45:00,-8.2,-12.4,29.43,East,98,9.0,10.0,81,0.00,CLR,,0.00,WeatherDisplay:10.37,2013-04-29 03:45:00,
2013-04-29 16:00:00,-8.4,-12.9,29.42,ESE,114,9.0,9.0,80,0.00,CLR,,0.00,WeatherDisplay:10.37,2013-04-29 04:00:00,
2013-04-29 16:15:00,-9.0,-13.5,29.41,SE,130,12.0,12.0,80,0.00,CLR,,0.00,WeatherDisplay:10.37,2013-04-29 04:15:00,
2013-04-29 16:30:00,-9.0,-13.5,29.41,ESE,121,9.0,12.0,80,0.00,CLR,,0.00,WeatherDisplay:10.37,2013-04-29 04:30:00,
2013-04-29 16:45:00,-8.9,-13.4,29.40,East,95,12.0,12.0,80,0.00,CLR,,0.00,WeatherDisplay:10.37,2013-04-29 04:45:00,
2013-04-29 19:00:00,-14.4,-19.5,29.41,ENE,65,24.0,24.0,77,0.00,,,0.00,WeatherDisplay:10.37,2013-04-29 07:00:00,
2013-04-29 19:15:00,-15.0,-20.4,29.41,ENE,63,30.0,30.0,76,0.00,,,0.00,WeatherDisplay:10.37,2013-04-29 07:15:00,
2013-04-29 19:30:00,-15.3,-20.7,29.41,ENE,57,30.0,30.0,76,0.00,,,0.00,WeatherDisplay:10.37,2013-04-29 07:30:00,
2013-04-29 19:45:00,-15.7,-21.0,29.41,NE,54,30.0,30.0,76,0.00,,,0.00,WeatherDisplay:10.37,2013-04-29 07:45:00,
2013-04-29 20:00:00,-15.7,-21.1,29.41,NE,56,28.0,30.0,76,0.00,,,0.00,WeatherDisplay:10.37,2013-04-29 08:00:00,
2013-04-29 20:15:00,-15.5,-20.8,29.42,ENE,65,26.0,28.0,76,0.00,,,0.00,WeatherDisplay:10.37,2013-04-29 08:15:00,
2013-04-29 20:30:00,-15.5,-20.9,29.42,ENE,66,24.0,26.0,76,0.00,,,0.00,WeatherDisplay:10.37,2013-04-29 08:30:00,
2013-04-29 20:45:00,-15.4,-20.7,29.41,ENE,58,25.0,25.0,76,0.00,,,0.00,WeatherDisplay:10.37,2013-04-29 08:45:00,
2013-04-29 21:00:00,-15.3,-20.7,29.41,ENE,59,25.0,25.0,76,0.00,,,0.00,WeatherDisplay:10.37,2013-04-29 09:00:00,
2013-04-29 21:15:00,-15.7,-21.0,29.41,NE,52,25.0,25.0,76,0.00,,,0.00,WeatherDisplay:10.37,2013-04-29 09:15:00,
2013-04-29 21:30:00,-15.3,-20.3,29.40,NE,56,22.0,25.0,77,0.00,CLR,,0.00,WeatherDisplay:10.37,2013-04-29 09:30:00,
2013-04-29 21:45:00,-15.3,-20.7,29.41,ENE,64,22.0,22.0,76,0.00,CLR,,0.00,WeatherDisplay:10.37,2013-04-29 09:45:00,
2013-04-29 22:00:00,-15.1,-20.4,29.40,ENE,60,23.0,23.0,76,0.00,,,0.00,WeatherDisplay:10.37,2013-04-29 10:00:00,
2013-04-29 22:15:00,-15.1,-20.4,29.40,ENE,61,21.0,23.0,76,0.00,CLR,,0.00,WeatherDisplay:10.37,2013-04-29 10:15:00,
2013-04-29 22:30:00,-15.1,-20.2,29.40,ENE,61,22.0,22.0,77,0.00,CLR,,0.00,WeatherDisplay:10.37,2013-04-29 10:30:00,
2013-04-29 22:45:00,-15.2,-20.5,29.39,ENE,59,24.0,24.0,76,0.00,,,0.00,WeatherDisplay:10.37,2013-04-29 10:45:00,
2013-04-29 23:00:00,-15.3,-20.7,29.39,ENE,61,23.0,24.0,76,0.00,,,0.00,WeatherDisplay:10.37,2013-04-29 11:00:00,
2013-04-29 23:15:00,-14.7,-19.9,29.40,ENE,60,24.0,24.0,77,0.00,,,0.00,WeatherDisplay:10.37,2013-04-29 11:15:00,
2013-04-29 23:30:00,-14.9,-20.0,29.40,NE,56,24.0,24.0,77,0.00,,,0.00,WeatherDisplay:10.37,2013-04-29 11:30:00,
2013-04-29 23:45:00,-15.1,-20.5,29.40,NE,56,23.0,24.0,76,0.00,CLR,,0.00,WeatherDisplay:10.37,2013-04-29 11:45:00,